cliquez pour ajouter le site Runraid à vos favoris  English version (google)  Retour à l'accueil Ecrire à l'auteur du site Runraid : Michel Jourdan



Les prochaines courses


Les derniers résultats

cliquez pour visualiser la page complète relatant la chronologie des éruptions du Piton de la Fournaise
éruptions Piton de la Fournaise


Ile de La Réunion

 Diagonale des Fous 

Ecrire au créateur du site : Michel Jourdan
Contact


2012-09-16 - Trail Tuit Tuit

Pour consulter le palmarès d'un coureur, un clic sur son nom !

Vous avez des remarques, corrections, ... sur ces résultats , un clic sur --> pour me transmettre toute information concernant les classements


Trail Tuit Tuit - 2012 : classement des 228 finishers
Place Nom Temps Cat. Club Sexe Clt/cat.
Place Nom Temps Cat. Club Sexe Clt/cat.
1 PERRAULT Gerry 02:32:52 V1M - M 337
2 NARAYANIN Eddy 02:38:01 SEM CAPOS M 237
3 BOYER Elysee 02:42:11 SEM - M 119
4 HOAREAU Jean Laurent 02:45:05 SEM - M 195
5 ROBERT Theophane 02:46:33 SEM - M 266
6 FONTANA Arnaud 02:50:15 V2M - M 1er V2M 347
7 RIVIERE Rosaire 02:50:17 V1M - M 2eme V1M 258
8 NOEL Alain 02:51:30 SEM - M 241
9 SISAYE Dany Serge 02:51:38 SEM - M 94
10 FONTAINE Bernard 02:55:23 V1M - M 173
11 MITHRIDATE Fabrice 03:00:07 SEM - M 231
12 CLAIN Fabien 03:00:17 SEM - M 316
13 LIBELLE Jovany 03:01:35 SEM - M 213
14 COCHIS Priyantha 03:04:16 JUM - M 1er Junior 136
15 PAUSE Exupery 03:04:35 SEM - M 244
16 FORISSIER Sylvain 03:05:27 SEM - M 324
17 LAURET Frederic 03:06:26 SEM - M 208
18 FELICITE Jean Francois 03:07:28 SEM - M 165
19 MAHAVE Jean bernard 03:07:30 SEM - M 217
20 FAUCON Emmanuel 03:08:08 SEM - M 162
21 DE LARICHAUDY Jean Sully 03:08:46 V1M - M 151
22 PAJANIANDY Jean Rene 03:08:54 V2M - M 2eme V2M 297
23 SIMME Jean Willy 03:09:06 SEM - M 271
24 ADELER Jean Rene 03:11:16 V1M - M 285
25 GOURIET Jean Pierre 03:11:23 SEM - M 182
26 LALLEMAND James 03:11:36 V1M - M 205
27 CHANE SEE CHU Olivier 03:12:54 SEM - M 90
28 HOARAU Franco 03:13:00 SEM - M 294
29 POTER Thierry 03:14:25 V1M - M 296
30 ROUGET Jean Willy 03:15:00 SEM - M 292
31 HIBON Fatima 03:15:36 SEF - F 1ere F 190
32 KIBIO Didier 03:17:33 SEM - M 200
33 ROBERT Martini 03:17:51 SEM - M 262
34 PAYET Jean Paul 03:18:17 V1M - M 250
35 THERMEA Kevin 03:18:29 ESM - M 1er Espoir 327
36 PAYET Fabrice 03:19:39 V1M - M 249
37 NASSIBOU David 03:19:52 SEM - M 238
38 HUBERT Desire 03:21:53 SEM - M 196
39 ECLAPIER Dominique 03:22:24 V2M - M 158
40 VILLECOURT Yann 03:22:29 SEM - M 334
41 CATHERINE Pierrot 03:22:33 V1M - M 128
42 M'TIMA Jean Rene 03:22:36 V1M - M 216
43 LEVENEUR Nadine 03:22:39 V1F - F 2eme F 211
44 MICHEL Jean Noel 03:23:49 SEM - M 286
45 FRADELIN Jean Rudy 03:23:53 SEM - M 176
46 MAILLOT Rudy 03:24:55 SEM - M 342
47 HENRY Jean Marc 03:25:06 V1M - M 314
48 FONTAINE Sully 03:27:05 V1M - M 175
49 ESPERANCE Fabrice 03:27:54 V1M - M 98
50 CADARSI Florent 03:29:12 SEM - M 125
51 GUENOT Jean dominique 03:29:27 V1M - M 187
52 ADELIN Jean Claude 03:29:42 V2M - M 100
53 PAUSE Mickael 03:30:22 SEM - M 247
54 MIREL Jean Francois 03:30:49 SEM - M 330
55 ISSACK Yahya 03:31:04 JUM - M 2eme Junior 239
56 JULLIAN Frederique 03:31:42 ESF - F 3eme F - 1ere Espoir F 199
57 MARIE MARTHE Bernard 03:32:08 V2M - M 350
58 LAI KON Desire 03:32:27 SEM - M 203
59 ALLOYER Frederic 03:33:03 SEM - M 103
60 YU KUI Daniel 03:34:28 V1M - M 299
61 BEGUE Michel 03:34:30 V1M - M 298
62 WEBER Vincent 03:34:38 V1M - M 284
63 ELEONORE Brian 03:35:32 JUM - M 160
64 LEGOUGUEL Eric 03:36:08 SEM - M 346
65 ROBERT Jean Noe 03:37:20 SEM - M 261
66 TECHER Philippe 03:38:39 V1M - M 341
67 HOARAU Teddy 03:39:35 SEM - M 336
68 AURE Fabrice 03:40:00 V1M - M 315
69 MEVIZOU Jean Patrick 03:40:24 V1M - M 229
70 HOARAU Michel 03:40:33 V2M - M 192
71 LEOCADIE Jean Louis 03:40:55 V1M - M 340
72 DAMOUR Jean laude 03:40:58 V1M - M 147
73 LASSAY Jean Pierre 03:41:00 V3M - M 1er V3M 206
74 ECLAPIER Jean Claude 03:41:44 V2M - M 159
75 HUET James 03:41:57 V1M - M 304
76 LEPERLIER Marcel Pascal 03:42:14 V2M - M 210
77 MILOVANOVIC Nicolas 03:43:50 SEM - M 230
78 CHARLETTINE Alexandre 03:43:52 JUM - M 134
79 FRADELIN Rene Claude 03:43:57 V1M - M 177
80 MOISAN Arnaud 03:44:00 SEM - M 232
81 FONTAINE Antoine 03:44:30 V2M - M 172
82 BOYER Claude 03:44:55 V2M - M 118
83 PROT MYRIAM 03:45:09 V1F - F 4eme feminine 253
84 BOUCHER Mickael 03:45:27 SEM - M 115
85 HUET Louis 03:47:05 V1M - M 325
86 ANAMIALO Thierry 03:47:26 SEM - M 320
87 ROBERT Maurice Joseph 03:47:47 V3M - M 2eme V3M 326
88 IGNACZAK Cyrille 03:47:50 SEM - M 323
89 PAUSE Rubens 03:48:27 V2M - M 248
90 VERBARD Christelle 03:48:40 SEF - F 5eme feminine 280
91 MOREAU Jean David 03:48:48 V1M - M 234
92 GOMEZ Dominique 03:49:19 V1F - F 6eme feminine 301
93 MOUGIN Charles 03:49:21 SEM - M 235
94 POCHET Thomas 03:49:24 SEM - M 251
95 BASQUAISE Anne Sophie 03:51:34 SEF - F 7eme feminine 310
96 PRIOR David 03:51:52 V1M - M 252
97 BIGUENA Sylvain 03:53:14 V2M - M 112
98 THOMAS Andre 03:53:21 V1M - M 331
99 DAMBREVILLE Didier 03:53:53 V1M - M 144
100 MOMBRUN Patrice 03:53:56 SEM - M 233
101 CHANE CHAN Johny 03:55:07 V1M - M 133
102 LEVILLAIN Johann 03:55:48 SEM - M 343
103 BRACHET Thomas 03:56:16 SEM - M 344
104 LOUTREUX Dominique 03:56:35 V2M - M 215
105 JUIGNIER Vincent 03:57:34 V1M - M 198
106 IBAO Jimmy 03:57:42 SEM - M 197
107 ROBERT Jean Rodrigue 03:57:51 SEM - M 92
108 RIVIERE Renaud 03:58:04 V1M - M 291
109 TARTROU Marie line 03:59:35 V2F - F 8eme feminine 272
110 RIVIERE Lionel 03:59:48 SEM - M 293
111 DEPECHE Darry 04:00:24 SEM - M 157
112 PIGNOLET Junot 04:00:58 V1M - M 91
113 DALLEAU Elvis 04:01:51 SEM - M 142
114 CHESNOY Philippe 04:02:02 V2M - M 135
115 AFER Fabrice 04:04:38 SEM - M 101
116 BLARD Christophe 04:04:43 ESM - M 2eme Espoir F 113
117 FLEURENCE Marianne 04:05:10 SEF DENIV F 9eme feminine 170
118 BASQUAISE Sonia 04:05:37 SEF - F 10eme feminine 309
119 LEVENEUR Pascal 04:07:35 V1M - M 212
120 DELEPOUVE Emmanuel 04:08:09 SEM - M 156
121 MAZEAU Judex 04:08:18 V1M - M 228
122 GAZAVE Christelle 04:08:24 SEF - F 178
123 BOYER Patrick 04:08:32 V1M - M 121
124 REBOUX Anne Helene 04:08:36 SEF - F 257
125 GRONDIN Rudy 04:09:19 SEM - M 185
126 DAVID Michel 04:09:26 V1M - M 150
127 HOARAU Jean Philippe 04:10:11 V1M - M 295
128 LACAILLE Bruno 04:10:28 SEM - M 202
129 LON MON POY Eric 04:11:13 V1M - M 349
130 MARIMOUTOU Gael 04:14:02 SEM - M 224
131 MUSSARD Pascal 04:14:14 SEM - M 289
132 MARIIS Antoine 04:14:53 SEM - M 223
133 LIEGEOIS Olivier 04:14:56 SEM - M 214
134 DELAY Nicolas 04:15:35 SEM - M 154
135 BOURDELAS Jerome 04:15:45 V1M - M 117
136 NIRLO Florence 04:16:07 SEF - F 240
137 TREMOULET Guillaume 04:16:36 SEM - M 274
138 BENARD Frederick 04:17:21 SEM - M 111
139 PAUSE Marie Anise 04:18:59 V1F - F 246
140 SAUTRON Jean Francois 04:19:07 V1M - M 268
141 LUZ Jean Philippe 04:19:52 V1M - M 290
142 DALELE Jean Marc 04:19:57 V1M - M 141
143 MARTIN PIRON Jean Louis 04:19:59 V3M - M 225
144 ZADVAT Jouamaid 04:20:22 SEM - M 321
145 LABRIT Benjamin 04:20:25 SEM - M 322
146 BERNARD Georges 04:21:44 V1M - M 339
147 BUTCHLE Agathe 04:23:20 V2F - F 2eme V2F 124
148 MARTINO Gilbert 04:23:25 V2M - M 226
149 MAILLOT Artman 04:23:27 SEM - M 218
150 LAURESTANT Jeannick 04:25:48 SEM - M 207
151 BRUNORO Philippe 04:27:04 V1M - M 123
152 PAUSE Jerome 04:29:25 SEM - M 245
153 MAYOT Benjamin 04:30:19 V2M - M 227
154 ROBERT Eric 04:31:22 V1M - M 259
155 HOARAU Michelle 04:33:04 SEF - F 193
156 DELAGE Stephane 04:33:55 V1M - M 153
157 VANWALSCAPPEL Jean Francois 04:35:03 SEM - M 278
158 CREUZET Jean Claude 04:35:09 V2M - M 137
159 MARIANNE Bernard 04:36:43 V1M - M 222
160 FAUSTIN Claudine 04:37:40 V1F - F 163
161 LE GAL Cecile 04:38:04 SEF - F 209
162 CUVELIER Antoine 04:40:15 SEM - M 139
163 LALLEMAND Fabrice 04:40:26 V1M - M 204
164 ROMEDER Benjamin 04:41:16 SEM - M 267
165 RAJAONARISON Danielle 04:42:03 V1F - F 254
166 ONIAN Zyaad 04:44:44 SEM - M 243
167 ROBERT Jean Hugues 04:45:12 V1M - M 260
168 MORTUREUX Bertrand 04:45:22 V1M - M 313
169 GOMBAULT Emmanuel 04:45:34 V1M - M 181
170 RAOULT Norbert 04:47:24 V1M - M 256
171 BELCOUR Dominique 04:47:34 SEF - F 110
172 TREUIL Pascal 04:47:38 SEM - M 275
173 GRONDIN Guy Noel 04:47:41 V1M - M 184
174 DUBOUST Anthony 04:47:52 SEM - M 287
175 HOARAU Erickson 04:47:55 SEM - M 191
176 POTHIN Annabelle 04:49:59 SEF - F 318
177 SAUTRON Marie Martine 04:50:42 V1F - F 345
178 FLORION Gregory 04:50:47 SEM - M 171
179 BARTHELEMY Anne Laure 04:53:07 SEF - F 108
180 FONTAINE Jean Marcel 04:54:18 V2M - M 174
181 BOMINTHE Guillaume 04:54:55 SEM - M 306
182 BOUDIN Jerome 04:55:33 SEM - M 116
183 VILLETTE Sebastien 04:58:34 SEM - M 282
184 OMNES Julien 04:58:45 SEM - M 242
185 BOYER Marie 04:59:11 V1F - F 120
186 VILLARD Jean Marc 05:00:57 V2M - M 281
187 FLAVIGNY Thierry 05:01:44 V1M - M 167
188 GOMARD Julien 05:02:32 SEM - M 303
189 CLASS Thomas 05:02:35 SEM - M 302
190 THIBON Jacques 05:04:24 V2M - M 273
191 AUGUSTINE NAYABOURY Marie Edmee 05:05:36 V2F - F 107
192 RAMAYE Jean Yann 05:09:03 SEM - M 255
193 DAMOUR REGIS 05:09:06 V1M - M 149
194 ARAUX Georges 05:13:58 V2M - M 106
195 VOLK Thierry 05:14:21 V3M - M 283
196 MANDER Willy 05:19:00 SEM - M 221
197 ENGUEHARD Michel 05:20:34 V1M - M 161
198 SEUSSE Corine 05:20:36 V1F - F 270
199 RIVIERE Eric 05:20:40 SEM - M 288
200 POTHIER Anne Christine 05:21:19 V1F - F 96
201 CERVEAUX Nadine 05:22:23 V1F - F 129
202 DALLEAU Jessica 05:22:33 SEF - F 143
203 BEGUE Therese 05:24:18 V2F - F 332
204 GUINEFOLLEAU Marc 05:33:07 V2M - M 188
205 HOARAU Moise 05:34:58 V1M - M 194
206 MAILLOT Nelson 05:35:37 SEM - M 219
207 DESCHAMPS Sebastien 05:37:08 SEM - M 338
208 BAZIN Arno 05:37:15 SEM - M 109
209 ROBERT Mirella 05:37:31 SEF - F 263
210 RAVEL Morgan 05:38:02 SEF - F 319
211 DABEE Mahendrasingh 05:41:03 V3M - M 140
212 MAILLOT Nicolas 05:41:19 ESM - M 220
213 GOURVILLE Daniele 05:41:46 V2F - F 183
214 BONNET Alain 05:45:19 V1M - M 114
215 FELIX Sivam 05:47:28 ESM - M 166
216 SERY Jean Max 05:53:11 V1M - M 269
217 CADET Olivier 05:53:17 SEM - M 127
218 ROBERT Nicole 05:54:40 SEF - F 264
219 ROBERT Regis 05:54:43 V1M - M 265
220 DAMBREVILLE Julie 05:55:49 SEF - F 145
221 PEREZ Angelique 05:55:51 SEF - F 317
222 LUSINIER Audrey 06:08:09 SEF - F 311
223 VELLARD Marie 06:08:41 V2F - F 279
224 TREBOUX Catherine 06:16:40 V1F - F 97
225 RAMAYE Yannick 06:19:23 SEM - M 300
226 CHAMBE Patricia 06:21:06 V1F - F 132
227 ETALE Vicky 06:52:28 ESF - F 2eme Espoir F 329
228 PIOGER Sebastien 06:55:45 V1M - M 95


ReferencementCe site est listé dans la catégorie Sport : Sports extrêmes Dictionnaire
| Accueil | La Réunion  Vue du ciel | Météo | Cyclones | Volcan | Cirques de Mafate , Cilaos , Salazie | Photos Randonnées | Randonnées Réunion: Randos Espiègle , Courses montagne | Diagonale des Fous |  Marathon des Sables | Voyages Les stats du site | Fonds écran | Plan du site | Blog de runraid | Galerie photos Sport Réunion |